EGXZ

RAF Topcliffe Airport

Topcliffe, United Kingdom
METAR EGXZ 182350Z AUTO 34008KT 9999 SCT029/// 05/04 Q1031
Observed Flight Rules
Nov-18 @ 23:50 UTC (an hour ago) Visual Flight Rules
Wind Visibility Clouds
340° at 8 knots 10,000+ meters
  • Scattered at 2,900' AGL
Temperatures Readings
Current 5°C / 41°F
Dewpoint 4°C / 39°F
Humidity 93%
Altimeter 30.44" Hg
Pressure 1031 hPa
Elevation 28
METAR EGXZ 182350Z AUTO 34008KT 9999 SCT029/// 05/04 Q1031
Observed Flight Rules
Nov-18 @ 23:50 UTC
(an hour ago)
VFR
Wind Visibility
340° at 8 knots 10,000+ meters
Clouds
  • Scattered at 2,900' AGL
Temperature Dewpoint
5°C / 41°F 4°C / 39°F
Humidity Altimeter Pressure
93% 30.44" Hg 1031 hPa